Time;durP1;ratioP1;P1;durP2;ratioP2;P2;SDS_P1;SDS_P2;PMS_P1;PMS_P2;Temp;Humidity;BMP_temperature;BMP_pressure;BME280_temperature;BME280_humidity;BME280_pressure;Samples;Min_cycle;Max_cycle;Signal;HPM_P1;HPM_P2
2023/07/04 00:01:47;;;;;;;8.95;1.23;;;13.20;99.90;;;;;;5057630;28;20047;-83
2023/07/04 00:04:16;;;;;;;14.05;1.67;;;12.10;99.90;;;;;;5060701;28;20041;-81
2023/07/04 00:06:42;;;;;;;5.60;1.17;;;12.70;99.90;;;;;;5054539;28;20051;-79
2023/07/04 00:09:08;;;;;;;9.35;1.38;;;12.20;99.90;;;;;;5057911;28;20331;-81
2023/07/04 00:11:34;;;;;;;6.90;1.30;;;12.10;99.90;;;;;;5048481;28;20357;-83
2023/07/04 00:14:00;;;;;;;6.20;1.30;;;12.10;99.90;;;;;;5067956;28;20049;-80
2023/07/04 00:16:26;;;;;;;7.53;1.17;;;12.10;99.90;;;;;;5065537;28;20312;-83
2023/07/04 00:18:52;;;;;;;4.60;1.00;;;12.10;99.90;;;;;;5061597;28;20044;-80
2023/07/04 00:21:21;;;;;;;7.13;1.98;;;13.40;99.90;;;;;;5054049;28;20033;-76
2023/07/04 00:23:52;;;;;;;6.07;0.93;;;12.10;99.90;;;;;;5040796;28;20036;-79
2023/07/04 00:26:19;;;;;;;3.63;0.93;;;12.10;99.90;;;;;;5061399;28;20039;-77
2023/07/04 00:28:46;;;;;;;5.60;1.27;;;12.10;99.90;;;;;;5053023;28;20045;-82
2023/07/04 00:31:16;;;;;;;5.82;1.00;;;12.10;99.90;;;;;;5059107;28;20049;-78
2023/07/04 00:33:43;;;;;;;10.60;1.10;;;12.10;99.90;;;;;;5055288;28;20137;-80
2023/07/04 00:36:13;;;;;;;5.82;0.93;;;12.10;99.90;;;;;;5055553;28;20041;-83
2023/07/04 00:38:41;;;;;;;8.68;1.30;;;12.00;99.90;;;;;;5059420;28;20099;-85
2023/07/04 00:41:13;;;;;;;6.20;1.15;;;12.10;99.90;;;;;;5047350;28;20511;-82
2023/07/04 00:44:00;;;;;;;4.20;0.98;;;13.70;99.90;;;;;;5054086;28;20092;-83
2023/07/04 00:46:39;;;;;;;7.88;1.08;;;12.00;99.90;;;;;;5049896;28;20045;-81
2023/07/04 00:49:20;;;;;;;8.38;1.63;;;12.00;99.90;;;;;;5049795;28;20052;-80
2023/07/04 00:51:57;;;;;;;9.00;1.50;;;11.90;99.90;;;;;;5058516;28;20415;-80
2023/07/04 00:54:29;;;;;;;9.05;1.40;;;13.00;99.90;;;;;;5062713;28;20040;-79
2023/07/04 00:57:02;;;;;;;6.45;1.17;;;11.90;99.90;;;;;;5053916;28;20079;-83
2023/07/04 00:59:34;;;;;;;5.05;1.75;;;12.70;99.90;;;;;;5054337;28;20120;-80
2023/07/04 01:02:00;;;;;;;10.57;1.17;;;11.80;99.90;;;;;;5048367;28;20562;-81
2023/07/04 01:04:26;;;;;;;5.65;1.20;;;11.80;99.90;;;;;;5031913;28;20120;-81
2023/07/04 01:07:08;;;;;;;7.85;0.85;;;11.80;99.90;;;;;;5038992;28;20127;-78
2023/07/04 01:09:36;;;;;;;5.43;0.88;;;12.70;99.90;;;;;;5038367;28;20136;-80
2023/07/04 01:12:03;;;;;;;4.78;1.20;;;11.80;99.90;;;;;;5041194;28;20059;-80
2023/07/04 01:14:29;;;;;;;4.13;0.77;;;11.80;99.90;;;;;;5036363;28;20041;-80
2023/07/04 01:16:56;;;;;;;4.30;1.00;;;11.70;99.90;;;;;;5062293;28;20447;-82
2023/07/04 01:19:32;;;;;;;6.03;1.33;;;11.80;99.90;;;;;;5040262;28;20229;-80
2023/07/04 01:22:15;;;;;;;3.70;1.00;;;11.80;99.90;;;;;;5059853;28;20150;-79
2023/07/04 01:24:50;;;;;;;4.40;0.80;;;11.80;99.90;;;;;;5051248;28;20037;-80
2023/07/04 01:27:17;;;;;;;6.07;1.17;;;11.80;99.90;;;;;;5052173;28;20142;-82
2023/07/04 01:29:43;;;;;;;5.63;1.45;;;11.90;99.90;;;;;;5061967;28;20508;-78
2023/07/04 01:32:09;;;;;;;6.85;1.23;;;11.80;99.90;;;;;;5053534;28;20032;-83
2023/07/04 01:34:35;;;;;;;3.97;1.13;;;11.80;99.90;;;;;;5040184;28;20032;-81
2023/07/04 01:37:02;;;;;;;3.78;1.00;;;11.80;99.90;;;;;;5053372;28;20412;-82
2023/07/04 01:39:28;;;;;;;6.20;1.48;;;11.80;99.90;;;;;;5056971;28;20116;-79
2023/07/04 01:41:54;;;;;;;4.20;1.42;;;11.80;99.90;;;;;;5037846;28;20191;-80
2023/07/04 01:44:24;;;;;;;7.45;1.23;;;10.80;99.90;;;;;;5033326;28;20055;-81
2023/07/04 01:46:50;;;;;;;10.65;1.60;;;13.10;99.90;;;;;;5057751;28;20045;-79
2023/07/04 01:49:17;;;;;;;4.95;1.40;;;11.90;99.90;;;;;;5050178;28;20388;-83
2023/07/04 01:51:43;;;;;;;11.18;1.80;;;11.90;99.90;;;;;;5039838;28;20488;-81
2023/07/04 01:54:13;;;;;;;5.65;1.45;;;12.80;99.90;;;;;;5054943;28;20485;-83
2023/07/04 01:56:39;;;;;;;7.63;1.58;;;11.70;99.90;;;;;;5056563;28;20083;-84
2023/07/04 01:59:07;;;;;;;10.85;1.70;;;11.90;99.90;;;;;;5067720;28;20048;-77
2023/07/04 02:01:33;;;;;;;4.40;1.42;;;11.90;99.90;;;;;;5042539;28;20087;-80
2023/07/04 02:03:58;;;;;;;4.32;1.23;;;11.90;99.90;;;;;;5044710;28;20041;-79
2023/07/04 02:06:24;;;;;;;5.53;1.48;;;11.90;99.90;;;;;;5055229;28;20041;-83
2023/07/04 02:08:49;;;;;;;5.85;1.45;;;12.00;99.90;;;;;;5058459;28;20045;-79
2023/07/04 02:11:15;;;;;;;4.28;1.52;;;12.00;99.90;;;;;;5057541;28;20119;-79
2023/07/04 02:13:41;;;;;;;4.03;1.40;;;12.00;99.90;;;;;;5051972;28;20054;-84
2023/07/04 02:16:06;;;;;;;8.90;1.83;;;12.00;99.90;;;;;;5060484;28;20040;-80
2023/07/04 02:18:32;;;;;;;3.25;1.40;;;12.60;99.90;;;;;;5048612;28;20075;-78
2023/07/04 02:20:58;;;;;;;7.65;1.67;;;12.60;99.90;;;;;;5050357;28;20072;-80
2023/07/04 02:23:24;;;;;;;4.47;1.40;;;12.00;99.90;;;;;;5059293;28;20032;-79
2023/07/04 02:25:49;;;;;;;7.07;1.75;;;12.00;99.90;;;;;;5059013;28;20143;-78
2023/07/04 02:28:15;;;;;;;10.48;1.55;;;12.10;99.90;;;;;;5054520;28;20060;-84
2023/07/04 02:30:51;;;;;;;5.35;1.40;;;12.10;99.90;;;;;;5047618;28;20372;-81
2023/07/04 02:33:17;;;;;;;8.23;1.60;;;12.20;99.90;;;;;;5052384;28;20136;-79
2023/07/04 02:35:47;;;;;;;8.10;2.22;;;13.60;99.90;;;;;;5054272;28;20052;-79
2023/07/04 02:38:13;;;;;;;4.25;1.58;;;13.20;99.90;;;;;;5029224;28;20037;-77
2023/07/04 02:40:47;;;;;;;3.28;1.30;;;13.50;99.90;;;;;;5050602;28;20045;-79
2023/07/04 02:43:14;;;;;;;6.88;2.33;;;12.10;99.90;;;;;;5044274;28;20036;-84
2023/07/04 02:45:40;;;;;;;6.13;1.50;;;12.10;99.90;;;;;;5059425;28;20041;-80
2023/07/04 02:48:06;;;;;;;9.93;2.20;;;12.30;99.90;;;;;;5028371;28;20418;-81
2023/07/04 02:50:32;;;;;;;5.53;1.70;;;12.20;99.90;;;;;;5053258;28;20411;-80
2023/07/04 02:52:59;;;;;;;4.68;1.58;;;12.20;99.90;;;;;;5044893;28;20136;-81
2023/07/04 02:55:25;;;;;;;10.23;1.67;;;12.20;99.90;;;;;;5058943;28;20036;-83
2023/07/04 02:57:51;;;;;;;7.43;1.60;;;13.70;99.90;;;;;;5045059;28;20141;-80
2023/07/04 03:00:16;;;;;;;4.72;0.95;;;12.60;99.90;;;;;;5032524;28;20475;-81
2023/07/04 03:02:43;;;;;;;3.63;1.20;;;12.20;99.90;;;;;;5058398;28;20060;-80
2023/07/04 03:05:09;;;;;;;4.93;1.15;;;13.40;99.90;;;;;;5037118;28;20045;-83
2023/07/04 03:07:35;;;;;;;9.45;1.55;;;12.20;99.90;;;;;;5036969;28;20147;-81
2023/07/04 03:10:00;;;;;;;4.70;0.98;;;12.20;99.90;;;;;;5051516;28;20057;-83
2023/07/04 03:12:26;;;;;;;2.72;1.15;;;12.30;99.90;;;;;;5047216;28;20412;-82
2023/07/04 03:14:52;;;;;;;2.45;0.82;;;12.20;99.90;;;;;;5054977;28;20040;-80
2023/07/04 03:17:18;;;;;;;5.43;1.27;;;12.20;99.90;;;;;;5052526;28;20637;-77
2023/07/04 03:19:43;;;;;;;4.10;0.93;;;12.20;99.90;;;;;;5057358;28;20408;-80
2023/07/04 03:22:09;;;;;;;3.22;0.90;;;12.20;99.90;;;;;;5062835;28;20051;-79
2023/07/04 03:24:35;;;;;;;2.42;0.60;;;12.20;99.90;;;;;;5055992;28;20520;-82
2023/07/04 03:27:00;;;;;;;4.65;1.23;;;12.20;99.90;;;;;;5057936;28;20431;-82
2023/07/04 03:29:26;;;;;;;4.45;1.50;;;12.20;99.90;;;;;;5060789;28;20033;-80
2023/07/04 03:31:52;;;;;;;1.80;0.60;;;12.20;99.90;;;;;;5059639;28;20454;-79
2023/07/04 03:34:17;;;;;;;4.82;0.90;;;12.20;99.90;;;;;;5052313;28;20040;-79
2023/07/04 03:36:43;;;;;;;6.30;1.40;;;12.10;99.90;;;;;;5064460;28;20086;-79
2023/07/04 03:39:09;;;;;;;3.13;0.60;;;12.20;99.90;;;;;;5061672;28;20071;-80
2023/07/04 03:41:35;;;;;;;2.97;0.80;;;12.10;99.90;;;;;;5061549;28;20420;-82
2023/07/04 03:44:01;;;;;;;5.88;0.90;;;12.10;99.90;;;;;;5067592;28;20049;-81
2023/07/04 03:46:27;;;;;;;4.82;0.90;;;13.70;99.90;;;;;;5068573;28;20036;-75
2023/07/04 03:48:53;;;;;;;2.08;0.50;;;12.00;99.90;;;;;;5059414;28;20048;-82
2023/07/04 03:51:19;;;;;;;2.20;0.82;;;12.00;99.90;;;;;;5059805;28;20796;-79
2023/07/04 03:53:44;;;;;;;2.85;0.85;;;12.10;99.90;;;;;;5059316;28;20124;-84
2023/07/04 03:56:10;;;;;;;4.60;1.50;;;12.10;99.90;;;;;;5050337;28;20043;-81
2023/07/04 03:58:36;;;;;;;4.18;1.35;;;11.80;99.90;;;;;;5058161;28;20099;-80
2023/07/04 04:01:06;;;;;;;3.05;1.00;;;12.00;99.90;;;;;;5057533;28;20412;-81
2023/07/04 04:03:37;;;;;;;3.70;1.15;;;12.00;99.90;;;;;;5051305;28;20120;-79
2023/07/04 04:06:07;;;;;;;4.25;1.40;;;12.00;99.90;;;;;;5059831;28;20398;-79
2023/07/04 04:08:34;;;;;;;3.80;0.90;;;12.00;99.90;;;;;;5043871;28;20039;-76
2023/07/04 04:11:18;;;;;;;5.85;1.10;;;12.00;99.90;;;;;;5061546;28;20086;-79
2023/07/04 04:14:02;;;;;;;6.13;0.90;;;12.00;99.90;;;;;;5059775;28;20503;-80
2023/07/04 04:16:43;;;;;;;4.85;0.73;;;13.30;99.90;;;;;;5056663;28;20040;-80
2023/07/04 04:19:09;;;;;;;1.95;0.90;;;12.10;99.90;;;;;;5049698;28;20045;-81
2023/07/04 04:21:35;;;;;;;5.88;1.48;;;13.20;99.90;;;;;;5056881;28;20041;-83
2023/07/04 04:24:00;;;;;;;6.38;1.35;;;12.10;99.90;;;;;;5060145;28;20119;-85
2023/07/04 04:26:26;;;;;;;5.55;1.60;;;12.20;99.90;;;;;;5059265;28;20500;-80
2023/07/04 04:28:55;;;;;;;7.13;1.98;;;12.20;99.90;;;;;;5061091;28;20064;-78
2023/07/04 04:31:21;;;;;;;5.07;1.77;;;12.20;99.90;;;;;;5059841;28;20041;-83
2023/07/04 04:33:47;;;;;;;6.50;1.23;;;12.20;99.90;;;;;;5054417;28;20615;-83
2023/07/04 04:36:17;;;;;;;5.85;1.88;;;12.20;99.90;;;;;;5060550;28;20077;-80
2023/07/04 04:38:43;;;;;;;4.38;1.42;;;13.50;99.90;;;;;;5061480;28;20472;-79
2023/07/04 04:41:09;;;;;;;6.07;1.23;;;12.30;99.90;;;;;;5042912;28;20128;-84
2023/07/04 04:43:35;;;;;;;3.03;1.58;;;12.30;99.90;;;;;;5041287;28;20120;-84
2023/07/04 04:46:01;;;;;;;8.95;3.88;;;13.80;99.90;;;;;;5054975;28;20044;-82
2023/07/04 04:48:35;;;;;;;6.25;3.45;;;14.00;99.90;;;;;;5055524;28;20052;-80
2023/07/04 04:51:12;;;;;;;6.68;2.65;;;12.40;99.90;;;;;;5057955;28;20044;-79
2023/07/04 04:53:39;;;;;;;4.47;1.95;;;13.40;99.90;;;;;;5028337;28;20071;-77
2023/07/04 04:56:06;;;;;;;4.95;1.40;;;13.60;99.90;;;;;;5057665;28;20408;-77
2023/07/04 04:58:32;;;;;;;4.43;1.70;;;12.40;99.90;;;;;;5047506;28;20049;-80
2023/07/04 05:01:06;;;;;;;6.97;1.63;;;12.50;99.90;;;;;;5057109;28;20049;-79
2023/07/04 05:03:31;;;;;;;9.50;1.63;;;12.20;99.90;;;;;;5037415;28;20107;-81
2023/07/04 05:06:01;;;;;;;6.60;2.55;;;12.50;99.90;;;;;;5047389;28;20045;-78
2023/07/04 05:08:26;;;;;;;5.43;1.88;;;12.50;99.90;;;;;;5048533;28;20041;-78
2023/07/04 05:11:04;;;;;;;6.70;1.92;;;12.50;99.90;;;;;;5059517;28;20094;-77
2023/07/04 05:13:31;;;;;;;6.90;2.13;;;12.50;99.90;;;;;;5058156;28;20056;-77
2023/07/04 05:16:02;;;;;;;7.13;2.08;;;12.80;99.90;;;;;;5050187;28;20041;-78
2023/07/04 05:18:31;;;;;;;7.28;2.58;;;14.50;99.90;;;;;;5042705;28;20399;-80
2023/07/04 05:21:22;;;;;;;9.13;3.97;;;12.60;99.90;;;;;;5061472;28;20067;-78
2023/07/04 05:23:50;;;;;;;5.97;2.42;;;12.70;99.90;;;;;;5035251;28;20091;-78
2023/07/04 05:26:17;;;;;;;4.70;1.77;;;12.70;99.90;;;;;;5028373;28;20049;-84
2023/07/04 05:28:43;;;;;;;4.75;1.23;;;12.80;99.90;;;;;;5067017;28;20044;-74
2023/07/04 05:31:17;;;;;;;7.30;2.17;;;12.80;99.90;;;;;;5050047;28;20048;-77
2023/07/04 05:33:44;;;;;;;7.80;2.33;;;12.80;99.90;;;;;;5053296;28;20088;-83
2023/07/04 05:36:22;;;;;;;3.47;1.70;;;12.80;99.90;;;;;;5027298;28;20041;-81
2023/07/04 05:38:49;;;;;;;9.85;6.25;;;12.90;99.90;;;;;;5063942;28;20446;-82
2023/07/04 05:41:16;;;;;;;14.57;3.13;;;12.90;99.90;;;;;;5026006;28;20144;-77
2023/07/04 05:43:43;;;;;;;4.82;2.08;;;14.70;99.90;;;;;;4343293;28;10000785;-78
2023/07/04 05:46:10;;;;;;;6.97;1.90;;;13.00;99.90;;;;;;5035988;28;20057;-76
2023/07/04 05:48:37;;;;;;;5.38;1.60;;;13.00;99.90;;;;;;4703883;28;10000255;-77
2023/07/04 05:51:08;;;;;;;1.98;1.17;;;13.00;99.90;;;;;;5056076;28;20045;-77
2023/07/04 05:53:35;;;;;;;6.38;1.55;;;13.10;99.90;;;;;;5017828;28;20041;-78
2023/07/04 05:56:22;;;;;;;8.32;1.35;;;13.20;99.90;;;;;;5051343;28;20045;-76
2023/07/04 05:58:53;;;;;;;5.05;1.00;;;13.20;99.90;;;;;;5047452;28;20065;-79
2023/07/04 06:01:34;;;;;;;5.55;1.33;;;13.20;99.90;;;;;;5053501;28;20077;-78
2023/07/04 06:04:02;;;;;;;4.32;1.10;;;13.30;99.90;;;;;;5054195;28;20059;-77
2023/07/04 06:06:33;;;;;;;4.43;1.08;;;13.30;99.90;;;;;;5039725;28;20392;-78
2023/07/04 06:09:01;;;;;;;6.53;1.20;;;13.30;99.90;;;;;;5057066;28;20587;-76
2023/07/04 06:11:31;;;;;;;4.18;1.17;;;13.40;99.90;;;;;;5058249;28;20044;-77
2023/07/04 06:13:57;;;;;;;4.82;0.93;;;14.50;99.90;;;;;;5046633;28;20046;-77
2023/07/04 06:16:23;;;;;;;2.85;1.13;;;13.90;99.90;;;;;;5061099;28;20078;-79
2023/07/04 06:18:49;;;;;;;5.95;0.77;;;13.80;99.90;;;;;;5050718;28;20048;-80
2023/07/04 06:21:18;;;;;;;5.35;0.90;;;14.40;99.90;;;;;;5052081;28;20796;-83
2023/07/04 06:23:44;;;;;;;6.40;0.90;;;13.70;99.90;;;;;;5061349;28;20122;-80
2023/07/04 06:26:11;;;;;;;4.65;1.10;;;13.70;99.90;;;;;;5048724;28;20056;-82
2023/07/04 06:28:38;;;;;;;10.15;1.05;;;14.10;99.90;;;;;;5060268;28;20047;-80
2023/07/04 06:31:05;;;;;;;2.80;0.80;;;15.10;99.90;;;;;;5061072;28;20496;-85
2023/07/04 06:33:32;;;;;;;7.97;1.10;;;13.90;99.90;;;;;;5046607;28;20059;-80
2023/07/04 06:35:58;;;;;;;6.55;1.02;;;13.90;99.90;;;;;;5054787;28;20037;-78
2023/07/04 06:38:25;;;;;;;7.15;1.00;;;14.00;99.90;;;;;;5058225;28;20059;-80
2023/07/04 06:41:12;;;;;;;2.75;0.70;;;13.90;99.90;;;;;;5060940;28;20048;-76
2023/07/04 06:43:40;;;;;;;8.05;1.90;;;14.10;99.90;;;;;;5047723;28;20115;-77
2023/07/04 06:46:06;;;;;;;6.28;1.67;;;14.20;99.90;;;;;;5056227;28;20068;-80
2023/07/04 06:48:32;;;;;;;5.82;1.10;;;15.20;99.90;;;;;;5049224;28;20076;-79
2023/07/04 06:51:12;;;;;;;4.38;1.00;;;15.00;99.90;;;;;;5027353;28;20037;-84
2023/07/04 06:53:38;;;;;;;4.65;0.80;;;14.30;99.90;;;;;;5049159;28;20048;-80
2023/07/04 06:56:13;;;;;;;5.63;1.02;;;14.30;99.90;;;;;;5050996;28;20052;-81
2023/07/04 06:58:41;;;;;;;4.88;1.15;;;14.40;99.90;;;;;;5049011;28;20076;-81
2023/07/04 07:01:07;;;;;;;4.45;0.90;;;14.40;99.90;;;;;;5056677;28;20037;-77
2023/07/04 07:03:33;;;;;;;6.38;1.15;;;14.50;99.90;;;;;;5056744;28;20072;-81
2023/07/04 07:06:06;;;;;;;5.22;0.90;;;14.50;99.90;;;;;;5057546;28;20080;-85
2023/07/04 07:08:31;;;;;;;7.25;0.93;;;15.10;99.90;;;;;;5058475;28;20488;-86
2023/07/04 07:11:03;;;;;;;4.05;0.80;;;15.20;99.90;;;;;;5043427;28;20503;-81
2023/07/04 07:13:30;;;;;;;5.78;1.10;;;14.70;99.90;;;;;;5061534;28;20044;-82
2023/07/04 07:16:15;;;;;;;2.53;0.70;;;14.80;99.90;;;;;;5064778;28;20049;-78
2023/07/04 07:18:42;;;;;;;6.75;0.80;;;14.80;99.90;;;;;;5051693;28;20040;-81
2023/07/04 07:21:10;;;;;;;4.57;0.50;;;14.80;99.90;;;;;;5057423;28;20037;-82
2023/07/04 07:23:36;;;;;;;4.10;0.70;;;14.80;99.90;;;;;;5058944;28;20056;-79
2023/07/04 07:26:05;;;;;;;5.57;1.02;;;16.10;99.90;;;;;;5060240;28;20399;-80
2023/07/04 07:28:33;;;;;;;7.85;0.70;;;14.90;99.90;;;;;;5060554;28;20056;-78
2023/07/04 07:31:06;;;;;;;3.13;0.80;;;14.90;99.90;;;;;;5060441;28;20036;-78
2023/07/04 07:33:33;;;;;;;4.15;2.63;;;15.10;99.90;;;;;;5058151;28;20051;-83
2023/07/04 07:35:59;;;;;;;7.35;2.53;;;15.10;99.90;;;;;;5054172;28;20047;-79
2023/07/04 07:38:26;;;;;;;5.70;1.15;;;15.10;99.90;;;;;;5057907;28;20135;-77
2023/07/04 07:40:54;;;;;;;3.05;0.98;;;15.10;99.90;;;;;;5056692;28;20033;-80
2023/07/04 07:43:20;;;;;;;5.57;0.73;;;15.10;99.90;;;;;;5057300;28;20076;-78
2023/07/04 07:45:46;;;;;;;6.57;0.68;;;15.10;99.90;;;;;;5059954;28;20051;-79
2023/07/04 07:48:17;;;;;;;4.05;1.15;;;15.20;99.90;;;;;;5060245;28;20064;-80
2023/07/04 07:50:43;;;;;;;5.35;1.02;;;15.20;99.90;;;;;;5038929;28;20048;-77
2023/07/04 07:53:09;;;;;;;2.05;0.50;;;16.20;99.90;;;;;;5056803;28;20041;-79
2023/07/04 07:55:35;;;;;;;5.43;1.10;;;15.20;99.90;;;;;;5058676;28;20488;-78
2023/07/04 07:58:01;;;;;;;6.35;0.93;;;15.30;99.90;;;;;;5053284;28;20502;-79
2023/07/04 08:00:29;;;;;;;5.28;0.73;;;15.30;99.90;;;;;;5057744;28;20041;-79
2023/07/04 08:02:54;;;;;;;3.88;0.63;;;15.30;99.90;;;;;;5042148;28;20047;-79
2023/07/04 08:05:20;;;;;;;5.13;0.82;;;15.50;99.90;;;;;;5042653;28;20033;-79
2023/07/04 08:07:46;;;;;;;6.45;0.82;;;15.40;99.90;;;;;;5055061;28;20038;-81
2023/07/04 08:10:11;;;;;;;4.28;0.70;;;15.30;99.90;;;;;;5045516;28;20476;-80
2023/07/04 08:12:37;;;;;;;6.38;0.77;;;15.50;99.90;;;;;;5058913;28;20044;-82
2023/07/04 08:15:03;;;;;;;4.05;1.02;;;15.50;99.90;;;;;;5043017;28;20051;-82
2023/07/04 08:17:29;;;;;;;4.38;1.10;;;15.50;99.90;;;;;;5059484;28;20053;-83
2023/07/04 08:19:55;;;;;;;9.38;1.05;;;15.60;99.90;;;;;;5056916;28;20041;-82
2023/07/04 08:22:20;;;;;;;8.30;1.25;;;15.60;99.90;;;;;;5059794;28;20087;-81
2023/07/04 08:24:46;;;;;;;7.57;0.93;;;15.70;99.90;;;;;;5046542;28;20091;-82
2023/07/04 08:27:11;;;;;;;4.78;1.10;;;15.80;99.90;;;;;;5064698;28;20372;-82
2023/07/04 08:29:37;;;;;;;4.57;1.50;;;15.80;99.90;;;;;;5062700;28;20037;-82
2023/07/04 08:32:03;;;;;;;4.47;1.02;;;15.90;99.90;;;;;;5063850;28;20032;-82
2023/07/04 08:34:29;;;;;;;5.88;1.27;;;15.90;99.90;;;;;;5044575;28;20040;-80
2023/07/04 08:36:54;;;;;;;6.13;1.45;;;15.90;99.90;;;;;;5060328;28;20043;-81
2023/07/04 08:39:20;;;;;;;8.25;1.52;;;15.90;99.90;;;;;;5061175;28;20051;-81
2023/07/04 08:41:59;;;;;;;4.85;1.27;;;15.90;99.90;;;;;;5045252;28;20382;-82
2023/07/04 08:44:40;;;;;;;7.70;1.35;;;15.90;99.90;;;;;;5042020;28;20033;-82
2023/07/04 08:47:11;;;;;;;6.25;1.40;;;15.90;99.90;;;;;;5045975;28;20037;-81
2023/07/04 08:50:00;;;;;;;4.47;1.13;;;15.90;99.90;;;;;;5064742;28;20037;-81
2023/07/04 08:52:29;;;;;;;4.90;1.50;;;15.90;99.90;;;;;;5063860;28;20048;-81
2023/07/04 08:54:55;;;;;;;11.95;1.70;;;16.00;99.90;;;;;;5045823;28;20033;-81
2023/07/04 08:57:37;;;;;;;15.27;2.92;;;16.00;99.90;;;;;;5065990;28;20053;-81
2023/07/04 09:00:14;;;;;;;8.88;1.52;;;16.10;99.90;;;;;;5067537;28;20485;-80
2023/07/04 09:02:45;;;;;;;6.93;1.55;;;16.10;99.90;;;;;;5061930;28;20033;-81
2023/07/04 09:05:43;;;;;;;8.85;1.92;;;16.20;99.90;;;;;;5064575;28;20040;-80
2023/07/04 09:08:46;;;;;;;6.57;2.15;;;16.20;99.90;;;;;;5058943;28;20422;-81
2023/07/04 09:11:14;;;;;;;10.52;2.00;;;16.30;99.90;;;;;;5041538;28;20045;-81
2023/07/04 09:13:43;;;;;;;6.25;1.65;;;16.30;99.90;;;;;;5042299;28;20048;-82
2023/07/04 09:16:36;;;;;;;10.93;1.65;;;16.30;99.90;;;;;;5061970;28;20128;-83
2023/07/04 09:19:06;;;;;;;9.35;1.85;;;16.50;99.90;;;;;;5052253;28;20643;-82
2023/07/04 09:21:33;;;;;;;5.25;1.60;;;16.60;99.90;;;;;;5060708;28;20128;-82
2023/07/04 09:24:01;;;;;;;13.07;2.08;;;16.60;99.90;;;;;;5059072;28;20048;-81
2023/07/04 09:26:56;;;;;;;8.52;2.35;;;16.80;99.90;;;;;;5038301;28;20033;-82
2023/07/04 09:29:24;;;;;;;8.55;1.73;;;16.80;99.90;;;;;;5058595;28;20045;-81
2023/07/04 09:32:00;;;;;;;8.95;1.77;;;16.80;99.90;;;;;;5061226;28;20037;-82
2023/07/04 09:34:38;;;;;;;8.60;2.50;;;17.00;99.90;;;;;;5062281;28;20040;-81
2023/07/04 09:37:19;;;;;;;11.85;1.98;;;16.90;99.90;;;;;;5050980;28;20277;-81
2023/07/04 09:39:50;;;;;;;10.57;2.00;;;16.90;99.90;;;;;;5041517;28;20160;-82
2023/07/04 09:42:18;;;;;;;7.50;1.70;;;16.90;99.90;;;;;;5062434;28;20079;-82
2023/07/04 09:44:45;;;;;;;4.10;1.25;;;16.90;99.90;;;;;;5041644;28;20139;-82
2023/07/04 09:47:25;;;;;;;5.35;1.42;;;17.10;99.90;;;;;;5040757;28;20032;-82
2023/07/04 09:50:30;;;;;;;10.82;1.95;;;17.20;99.90;;;;;;5061541;28;20044;-82
2023/07/04 09:53:08;;;;;;;8.88;1.20;;;17.20;99.90;;;;;;5058133;28;20129;-82
2023/07/04 09:55:34;;;;;;;8.63;1.73;;;17.20;99.90;;;;;;5058763;28;20032;-81
2023/07/04 09:58:18;;;;;;;9.18;1.33;;;17.30;99.90;;;;;;5042631;28;20131;-82
2023/07/04 10:00:45;;;;;;;10.68;1.98;;;17.30;99.90;;;;;;5060357;28;20129;-81
2023/07/04 10:03:11;;;;;;;8.90;1.60;;;17.30;99.90;;;;;;5024320;28;20532;-81
2023/07/04 10:05:40;;;;;;;8.57;1.02;;;17.30;99.90;;;;;;5058222;28;20088;-82
2023/07/04 10:08:12;;;;;;;5.13;0.90;;;17.20;99.90;;;;;;5061542;28;20051;-80
2023/07/04 10:10:50;;;;;;;6.15;1.20;;;17.20;99.90;;;;;;5061622;28;20044;-80
2023/07/04 10:13:36;;;;;;;10.57;1.80;;;17.50;99.90;;;;;;5057810;28;20033;-80
2023/07/04 10:16:20;;;;;;;7.82;1.67;;;17.40;99.90;;;;;;5051260;28;20048;-80
2023/07/04 10:18:46;;;;;;;6.10;1.70;;;17.40;99.90;;;;;;5059299;28;20037;-81
2023/07/04 10:21:12;;;;;;;8.07;1.40;;;17.30;99.90;;;;;;5061838;28;20052;-79
2023/07/04 10:23:38;;;;;;;9.77;1.50;;;17.40;99.90;;;;;;5043708;28;20045;-80
2023/07/04 10:26:06;;;;;;;8.63;1.30;;;17.70;99.90;;;;;;5057667;28;20048;-80
2023/07/04 10:28:33;;;;;;;8.40;1.45;;;18.40;99.90;;;;;;5040125;28;20033;-81
2023/07/04 10:31:07;;;;;;;10.18;1.63;;;17.10;99.90;;;;;;5066619;28;20494;-81
2023/07/04 10:33:38;;;;;;;;;;;17.10;99.90;;;;;;5058113;28;20041;-81
2023/07/04 10:36:07;;;;;;;7.93;1.67;;;17.10;99.90;;;;;;5050572;28;19974;-81
2023/07/04 10:38:44;;;;;;;7.63;1.10;;;17.20;99.90;;;;;;5058796;28;20044;-81
2023/07/04 10:41:22;;;;;;;4.60;1.05;;;17.30;99.90;;;;;;5046053;28;20091;-80
2023/07/04 10:44:03;;;;;;;9.40;1.67;;;17.40;99.90;;;;;;5067580;28;20045;-81
2023/07/04 10:46:30;;;;;;;10.88;1.63;;;17.40;99.90;;;;;;5061896;28;20145;-81
2023/07/04 10:49:08;;;;;;;8.75;1.73;;;17.30;99.90;;;;;;5040628;28;20158;-80
2023/07/04 10:51:39;;;;;;;7.35;1.40;;;17.30;99.90;;;;;;5057355;28;20041;-80
2023/07/04 10:54:08;;;;;;;13.77;1.92;;;17.60;99.90;;;;;;5048471;28;20048;-80
2023/07/04 10:56:36;;;;;;;6.93;1.48;;;17.50;99.90;;;;;;5057056;28;20037;-80
2023/07/04 10:59:21;;;;;;;8.32;1.95;;;17.70;99.90;;;;;;5025625;28;20044;-81
2023/07/04 11:02:10;;;;;;;7.20;1.75;;;17.70;99.90;;;;;;5041854;28;20044;-80
2023/07/04 11:04:38;;;;;;;5.20;1.23;;;17.70;99.90;;;;;;5023249;28;20028;-80
2023/07/04 11:07:15;;;;;;;8.05;1.50;;;17.50;99.90;;;;;;5042993;28;20044;-81
2023/07/04 11:09:42;;;;;;;7.70;1.48;;;18.60;99.90;;;;;;5060919;28;20119;-82
2023/07/04 11:12:14;;;;;;;8.38;2.63;;;17.50;99.90;;;;;;5050333;28;20048;-80
2023/07/04 11:14:42;;;;;;;7.13;1.73;;;17.50;99.90;;;;;;5057146;28;20116;-80
2023/07/04 11:17:17;;;;;;;7.88;1.20;;;17.50;99.90;;;;;;5048859;28;20044;-80
2023/07/04 11:19:56;;;;;;;7.22;1.70;;;17.60;99.90;;;;;;5057124;28;20095;-81
2023/07/04 11:22:39;;;;;;;9.60;2.05;;;17.50;99.90;;;;;;5059963;28;20033;-80
2023/07/04 11:25:29;;;;;;;7.10;1.55;;;17.50;99.90;;;;;;5057658;28;20041;-80
2023/07/04 11:28:15;;;;;;;7.38;1.50;;;17.50;99.90;;;;;;5058398;28;20408;-80
2023/07/04 11:30:42;;;;;;;7.10;1.20;;;17.50;99.90;;;;;;5060361;28;20491;-81
2023/07/04 11:33:08;;;;;;;6.00;1.42;;;17.60;99.90;;;;;;5057526;28;20179;-80
2023/07/04 11:35:36;;;;;;;8.23;1.83;;;17.70;99.90;;;;;;5057006;28;20081;-81
2023/07/04 11:38:10;;;;;;;10.45;1.50;;;17.80;99.90;;;;;;5058140;28;20056;-80
2023/07/04 11:40:46;;;;;;;5.30;1.60;;;18.00;99.90;;;;;;5060701;28;20037;-80
2023/07/04 11:43:41;;;;;;;9.05;1.65;;;18.30;99.90;;;;;;5048117;28;20045;-81
2023/07/04 11:46:20;;;;;;;4.55;1.15;;;18.20;99.90;;;;;;5058908;28;20113;-81
2023/07/04 11:48:49;;;;;;;6.20;1.20;;;18.40;99.90;;;;;;5061287;28;20555;-81
2023/07/04 11:51:15;;;;;;;6.45;1.80;;;18.40;99.90;;;;;;5048217;28;20548;-82
2023/07/04 11:54:06;;;;;;;9.40;1.55;;;18.50;99.90;;;;;;5057108;28;20048;-82
2023/07/04 11:56:32;;;;;;;4.85;1.55;;;18.40;99.90;;;;;;5054086;28;20053;-81
2023/07/04 11:59:20;;;;;;;4.82;1.10;;;18.60;99.90;;;;;;5022091;28;20394;-82
2023/07/04 12:01:52;;;;;;;5.85;1.38;;;18.80;99.90;;;;;;5057890;28;20045;-83
2023/07/04 12:04:33;;;;;;;6.45;1.38;;;19.10;99.90;;;;;;5030217;28;20037;-83
2023/07/04 12:07:07;;;;;;;7.68;1.50;;;19.30;99.30;;;;;;5059559;28;20050;-81
2023/07/04 12:09:45;;;;;;;6.35;1.60;;;19.20;99.10;;;;;;5064389;28;20506;-82
2023/07/04 12:12:23;;;;;;;8.05;1.30;;;19.20;99.40;;;;;;5060719;28;20064;-82
2023/07/04 12:14:56;;;;;;;6.60;1.55;;;19.30;98.90;;;;;;5060634;28;20060;-82
2023/07/04 12:17:22;;;;;;;8.33;2.00;;;19.30;98.80;;;;;;5052949;28;20064;-82
2023/07/04 12:19:55;;;;;;;4.97;1.55;;;19.40;98.80;;;;;;5060166;28;20041;-84
2023/07/04 12:22:20;;;;;;;15.57;2.47;;;19.40;98.90;;;;;;5054383;28;20124;-82
2023/07/04 12:24:46;;;;;;;6.97;1.58;;;19.40;98.90;;;;;;5068880;28;20505;-82
2023/07/04 12:27:12;;;;;;;6.07;1.85;;;19.30;98.80;;;;;;5051141;28;20090;-83
2023/07/04 12:29:46;;;;;;;9.13;1.30;;;19.40;98.60;;;;;;5064153;28;20439;-82
2023/07/04 12:32:18;;;;;;;6.18;1.52;;;19.30;98.60;;;;;;5060455;28;20041;-82
2023/07/04 12:34:44;;;;;;;7.13;1.55;;;19.10;98.70;;;;;;5060059;28;20040;-82
2023/07/04 12:37:16;;;;;;;7.70;1.38;;;19.10;98.70;;;;;;5062709;28;20033;-82
2023/07/04 12:39:45;;;;;;;4.95;1.40;;;19.30;97.50;;;;;;5045075;28;20056;-82
2023/07/04 12:42:20;;;;;;;9.98;1.63;;;18.70;97.50;;;;;;5043191;28;20575;-82
2023/07/04 12:44:45;;;;;;;7.40;1.40;;;19.50;98.10;;;;;;5060185;28;20440;-82
2023/07/04 12:47:17;;;;;;;7.32;1.25;;;19.70;96.70;;;;;;5059197;28;20037;-82
2023/07/04 12:49:43;;;;;;;9.55;1.60;;;19.70;96.70;;;;;;5059921;28;20041;-85
2023/07/04 12:52:11;;;;;;;5.43;1.83;;;19.40;97.40;;;;;;5062655;28;20040;-83
2023/07/04 12:54:38;;;;;;;6.95;1.58;;;19.40;97.30;;;;;;5062800;28;20039;-85
2023/07/04 12:57:05;;;;;;;7.80;1.38;;;19.40;96.90;;;;;;5063284;28;20052;-83
2023/07/04 12:59:33;;;;;;;8.27;1.40;;;19.40;96.50;;;;;;5043634;28;20183;-82
2023/07/04 13:02:03;;;;;;;6.95;1.42;;;19.60;96.60;;;;;;5069327;28;20049;-81